Time;durP1;ratioP1;P1;durP2;ratioP2;P2;SDS_P1;SDS_P2;PMS_P1;PMS_P2;Temp;Humidity;BMP_temperature;BMP_pressure;BME280_temperature;BME280_humidity;BME280_pressure;Samples;Min_cycle;Max_cycle;Signal;HPM_P1;HPM_P2
2021/08/22 00:00:01;;;;;;;13.63;9.13;;;17.50;99.90;;;;;;5015681;28;20194;-91
2021/08/22 00:02:28;;;;;;;15.67;8.93;;;17.60;99.90;;;;;;5033445;28;20484;-91
2021/08/22 00:04:55;;;;;;;16.80;9.97;;;17.50;99.90;;;;;;5034660;28;20901;-90
2021/08/22 00:07:20;;;;;;;14.17;8.90;;;17.50;99.90;;;;;;5017798;28;20914;-90
2021/08/22 00:09:46;;;;;;;17.47;9.87;;;17.50;99.90;;;;;;5026325;28;20234;-90
2021/08/22 00:12:12;;;;;;;15.33;9.17;;;17.50;99.90;;;;;;5036181;28;20638;-91
2021/08/22 00:14:38;;;;;;;14.30;10.10;;;17.50;99.90;;;;;;5036410;28;20708;-91
2021/08/22 00:17:04;;;;;;;18.47;10.20;;;17.50;99.90;;;;;;5031223;28;20757;-91
2021/08/22 00:19:30;;;;;;;14.57;8.37;;;17.60;99.90;;;;;;5026307;28;20257;-91
2021/08/22 00:21:56;;;;;;;12.37;9.33;;;17.60;99.90;;;;;;5031648;28;20214;-91
2021/08/22 00:24:21;;;;;;;16.43;9.03;;;17.50;99.90;;;;;;5020312;28;20186;-91
2021/08/22 00:26:47;;;;;;;16.00;9.80;;;17.60;99.90;;;;;;5018668;28;20608;-91
2021/08/22 00:29:13;;;;;;;12.13;9.37;;;17.60;99.90;;;;;;5034056;28;20210;-91
2021/08/22 00:31:39;;;;;;;16.30;9.63;;;17.50;99.90;;;;;;5017945;28;20252;-91
2021/08/22 00:34:04;;;;;;;16.63;9.70;;;17.60;99.90;;;;;;5021961;28;20215;-91
2021/08/22 00:36:30;;;;;;;15.17;10.53;;;17.60;99.90;;;;;;5034376;28;20214;-91
2021/08/22 00:38:56;;;;;;;14.23;9.60;;;17.50;99.90;;;;;;5034714;28;20285;-91
2021/08/22 00:41:22;;;;;;;13.80;9.40;;;17.50;99.90;;;;;;5016027;28;20264;-91
2021/08/22 00:43:48;;;;;;;17.77;9.93;;;17.60;99.90;;;;;;5002588;28;20237;-91
2021/08/22 00:46:14;;;;;;;15.70;9.13;;;17.50;99.90;;;;;;5026789;28;20230;-91
2021/08/22 00:48:42;;;;;;;15.50;10.30;;;17.60;99.90;;;;;;5029672;28;20298;-91
2021/08/22 00:51:08;;;;;;;15.50;11.00;;;17.60;99.90;;;;;;5040698;28;20264;-91
2021/08/22 00:53:37;;;;;;;16.07;9.10;;;17.60;99.90;;;;;;5042140;28;20187;-91
2021/08/22 00:56:03;;;;;;;21.27;10.73;;;17.60;99.90;;;;;;5043932;28;20211;-91
2021/08/22 00:58:31;;;;;;;16.53;10.93;;;17.60;99.90;;;;;;5032429;28;20210;-91
2021/08/22 01:00:59;;;;;;;16.13;10.70;;;17.60;99.90;;;;;;5033014;28;20300;-91
2021/08/22 01:03:46;;;;;;;19.93;10.60;;;17.60;99.90;;;;;;5035027;28;20206;-91
2021/08/22 01:06:39;;;;;;;19.33;11.07;;;17.60;99.90;;;;;;5043843;28;20205;-90
2021/08/22 01:09:11;;;;;;;15.37;10.33;;;17.60;99.90;;;;;;5041714;28;20357;-91
2021/08/22 01:11:39;;;;;;;19.10;12.10;;;17.60;99.90;;;;;;5027772;28;20182;-91
2021/08/22 01:14:11;;;;;;;17.97;10.40;;;17.60;99.90;;;;;;5043373;28;20216;-91
2021/08/22 01:16:45;;;;;;;21.33;11.23;;;17.70;99.90;;;;;;5042524;28;20214;-91
2021/08/22 01:19:20;;;;;;;20.03;10.83;;;17.60;99.90;;;;;;5044935;28;20342;-91
2021/08/22 01:21:47;;;;;;;22.63;9.43;;;17.60;99.90;;;;;;5039737;28;20225;-91
2021/08/22 01:24:17;;;;;;;17.57;10.10;;;17.70;99.90;;;;;;5033857;28;20186;-91
2021/08/22 01:26:44;;;;;;;19.03;11.47;;;17.70;99.90;;;;;;5032664;28;20221;-91
2021/08/22 01:29:10;;;;;;;16.20;9.93;;;17.70;99.90;;;;;;5027274;28;20304;-91
2021/08/22 01:31:40;;;;;;;18.70;11.27;;;17.70;99.90;;;;;;5028835;28;20226;-90
2021/08/22 01:34:07;;;;;;;19.20;10.83;;;17.70;99.90;;;;;;5037627;28;20213;-91
2021/08/22 01:36:34;;;;;;;17.97;11.83;;;17.70;99.90;;;;;;5032141;28;20679;-91
2021/08/22 01:39:00;;;;;;;19.43;10.97;;;17.70;99.90;;;;;;5045855;28;20210;-91
2021/08/22 01:41:27;;;;;;;22.07;11.83;;;17.70;99.90;;;;;;5024875;28;20305;-91
2021/08/22 01:43:54;;;;;;;17.10;10.17;;;17.70;99.90;;;;;;5043503;28;20469;-91
2021/08/22 01:46:36;;;;;;;20.83;11.17;;;17.70;99.90;;;;;;5033032;28;20218;-91
2021/08/22 01:49:12;;;;;;;16.17;10.20;;;17.70;99.90;;;;;;5039751;28;20218;-91
2021/08/22 01:51:40;;;;;;;18.60;9.57;;;17.70;99.90;;;;;;5021668;28;20225;-91
2021/08/22 01:54:09;;;;;;;18.00;11.07;;;17.80;99.90;;;;;;5006284;28;20200;-91
2021/08/22 01:56:40;;;;;;;20.40;10.97;;;17.80;99.90;;;;;;5039721;28;20178;-91
2021/08/22 01:59:07;;;;;;;16.57;11.00;;;17.80;99.90;;;;;;5042850;28;20222;-91
2021/08/22 02:01:35;;;;;;;17.07;10.27;;;17.80;99.90;;;;;;5031562;28;20610;-91
2021/08/22 02:04:26;;;;;;;14.80;9.87;;;17.80;99.90;;;;;;5046630;28;20591;-92
2021/08/22 02:07:02;;;;;;;15.63;9.80;;;17.90;99.90;;;;;;5023273;28;20268;-91
2021/08/22 02:09:52;;;;;;;17.53;10.93;;;18.00;99.90;;;;;;5037792;28;20226;-91
2021/08/22 02:12:20;;;;;;;16.77;9.90;;;18.00;99.90;;;;;;5040347;28;20186;-91
2021/08/22 02:15:00;;;;;;;14.37;10.57;;;18.10;99.90;;;;;;5032393;28;20696;-91
2021/08/22 02:17:31;;;;;;;14.63;10.10;;;18.10;99.90;;;;;;5039673;28;20293;-91
2021/08/22 02:19:57;;;;;;;18.27;10.27;;;18.20;99.90;;;;;;5043842;28;20213;-91
2021/08/22 02:22:24;;;;;;;17.23;10.73;;;18.20;99.90;;;;;;5046009;28;20214;-91
2021/08/22 02:24:50;;;;;;;14.33;8.93;;;18.30;99.90;;;;;;5034901;28;20213;-91
2021/08/22 02:27:16;;;;;;;16.17;9.70;;;18.30;99.90;;;;;;5032020;28;20253;-91
2021/08/22 02:29:51;;;;;;;15.00;9.40;;;18.30;99.90;;;;;;5022524;28;20213;-91
2021/08/22 02:32:17;;;;;;;17.03;10.13;;;18.30;99.90;;;;;;5024309;28;20263;-91
2021/08/22 02:34:43;;;;;;;15.73;10.57;;;18.30;99.90;;;;;;5032650;28;20297;-91
2021/08/22 02:37:09;;;;;;;19.83;11.77;;;18.30;99.90;;;;;;5031780;28;20209;-91
2021/08/22 02:39:36;;;;;;;19.00;10.43;;;18.30;99.90;;;;;;5030966;28;20218;-91
2021/08/22 02:42:04;;;;;;;16.73;10.40;;;18.30;99.90;;;;;;5039477;28;20244;-91
2021/08/22 02:44:30;;;;;;;14.20;9.70;;;18.40;99.90;;;;;;5046207;28;20205;-91
2021/08/22 02:46:56;;;;;;;16.40;10.43;;;18.40;99.90;;;;;;5039351;28;20222;-90
2021/08/22 02:49:22;;;;;;;19.07;11.07;;;18.40;99.90;;;;;;5031945;28;20652;-90
2021/08/22 02:51:48;;;;;;;18.50;10.97;;;18.30;99.90;;;;;;5038931;28;20233;-90
2021/08/22 02:54:13;;;;;;;16.47;9.93;;;18.30;99.90;;;;;;5032603;28;20194;-90
2021/08/22 02:56:39;;;;;;;18.63;11.40;;;18.30;99.90;;;;;;5033937;28;20194;-90
2021/08/22 02:59:05;;;;;;;16.50;10.57;;;18.30;99.90;;;;;;5032582;28;20225;-91
2021/08/22 03:01:31;;;;;;;21.33;10.97;;;18.20;99.90;;;;;;5032428;28;20206;-91
2021/08/22 03:03:57;;;;;;;18.27;11.03;;;18.20;99.90;;;;;;5034223;28;20224;-91
2021/08/22 03:06:22;;;;;;;16.13;10.50;;;18.10;99.90;;;;;;5034874;28;20221;-91
2021/08/22 03:08:48;;;;;;;18.57;10.30;;;18.10;99.90;;;;;;5035145;28;20711;-91
2021/08/22 03:11:20;;;;;;;19.40;11.60;;;18.10;99.90;;;;;;5033875;28;20254;-91
2021/08/22 03:13:46;;;;;;;13.17;10.40;;;18.10;99.90;;;;;;5031979;28;20219;-92
2021/08/22 03:16:12;;;;;;;18.10;11.10;;;18.10;99.90;;;;;;5022655;28;20218;-91
2021/08/22 03:18:38;;;;;;;26.20;11.70;;;18.00;99.90;;;;;;5025046;28;20214;-91
2021/08/22 03:21:04;;;;;;;13.73;9.43;;;18.00;99.90;;;;;;5031749;28;20191;-91
2021/08/22 03:23:30;;;;;;;19.80;10.97;;;17.90;99.90;;;;;;5039048;28;20189;-90
2021/08/22 03:25:56;;;;;;;16.43;10.57;;;17.90;99.90;;;;;;5035446;28;20768;-90
2021/08/22 03:28:21;;;;;;;19.87;11.47;;;17.90;99.90;;;;;;5033356;28;20684;-90
2021/08/22 03:30:51;;;;;;;18.60;10.43;;;17.90;99.90;;;;;;5035024;28;20217;-91
2021/08/22 03:33:17;;;;;;;18.30;10.97;;;17.90;99.90;;;;;;5042876;28;20269;-90
2021/08/22 03:35:43;;;;;;;20.37;10.07;;;17.80;99.90;;;;;;5042154;28;20190;-91
2021/08/22 03:38:09;;;;;;;18.33;10.97;;;17.90;99.90;;;;;;5034066;28;20219;-90
2021/08/22 03:40:35;;;;;;;18.97;11.73;;;17.80;99.90;;;;;;5045806;28;20305;-91
2021/08/22 03:43:01;;;;;;;19.43;11.27;;;17.90;99.90;;;;;;5031601;28;20202;-91
2021/08/22 03:45:26;;;;;;;22.90;10.90;;;17.90;99.90;;;;;;5039880;28;20249;-91
2021/08/22 03:47:52;;;;;;;20.90;10.73;;;17.80;99.90;;;;;;5032830;28;20187;-90
2021/08/22 03:50:18;;;;;;;17.07;11.37;;;17.80;99.90;;;;;;5035806;28;20216;-91
2021/08/22 03:52:47;;;;;;;19.03;10.87;;;17.80;99.90;;;;;;5036073;28;20207;-91
2021/08/22 03:55:14;;;;;;;15.60;10.07;;;17.80;99.90;;;;;;5032779;28;20210;-90
2021/08/22 03:57:40;;;;;;;19.33;11.33;;;17.80;99.90;;;;;;5032117;28;20212;-90
2021/08/22 04:00:06;;;;;;;12.57;9.40;;;17.70;99.90;;;;;;5032432;28;20647;-90
2021/08/22 04:02:32;;;;;;;17.67;10.43;;;17.70;99.90;;;;;;5033317;28;20194;-90
2021/08/22 04:05:00;;;;;;;18.97;10.37;;;17.70;99.90;;;;;;5040561;28;20214;-90
2021/08/22 04:07:28;;;;;;;16.97;10.93;;;17.70;99.90;;;;;;5034399;28;21232;-91
2021/08/22 04:09:54;;;;;;;20.17;10.87;;;17.70;99.90;;;;;;5034935;28;20226;-90
2021/08/22 04:12:19;;;;;;;17.60;10.90;;;17.70;99.90;;;;;;5020632;28;20595;-91
2021/08/22 04:14:45;;;;;;;19.83;11.07;;;17.70;99.90;;;;;;5034741;28;20248;-90
2021/08/22 04:17:11;;;;;;;16.33;10.07;;;17.70;99.90;;;;;;5034411;28;20281;-91
2021/08/22 04:19:38;;;;;;;17.37;10.43;;;17.60;99.90;;;;;;5035295;28;20202;-90
2021/08/22 04:22:04;;;;;;;21.53;12.87;;;17.60;99.90;;;;;;5034070;28;20608;-90
2021/08/22 04:24:30;;;;;;;16.27;11.50;;;17.60;99.90;;;;;;5034031;28;20207;-90
2021/08/22 04:26:56;;;;;;;17.43;11.77;;;17.60;99.90;;;;;;5033097;28;20274;-90
2021/08/22 04:29:22;;;;;;;17.67;11.73;;;17.60;99.90;;;;;;5034624;28;20234;-89
2021/08/22 04:31:47;;;;;;;17.77;11.57;;;17.60;99.90;;;;;;5031598;28;20225;-89
2021/08/22 04:34:13;;;;;;;18.40;10.50;;;17.60;99.90;;;;;;5031046;28;20304;-90
2021/08/22 04:36:39;;;;;;;18.17;11.17;;;17.60;99.90;;;;;;5030752;28;20217;-90
2021/08/22 04:39:05;;;;;;;16.10;10.20;;;17.60;99.90;;;;;;5040106;28;20237;-90
2021/08/22 04:41:30;;;;;;;19.03;10.00;;;17.50;99.90;;;;;;5030509;28;20280;-89
2021/08/22 04:43:56;;;;;;;16.30;8.90;;;17.50;99.90;;;;;;5028937;28;20218;-90
2021/08/22 04:46:22;;;;;;;13.67;8.43;;;17.50;99.90;;;;;;5013471;28;21268;-89
2021/08/22 04:48:48;;;;;;;15.00;9.63;;;17.50;99.90;;;;;;5030494;28;20300;-88
2021/08/22 04:51:14;;;;;;;17.43;9.73;;;17.50;99.90;;;;;;5030731;28;20178;-90
2021/08/22 04:53:39;;;;;;;21.90;10.43;;;17.50;99.90;;;;;;5038931;28;20206;-90
2021/08/22 04:56:08;;;;;;;16.60;8.73;;;17.50;99.90;;;;;;5029087;28;20211;-90
2021/08/22 04:58:35;;;;;;;15.63;9.63;;;17.40;99.90;;;;;;5020577;28;20293;-89
2021/08/22 05:01:01;;;;;;;15.13;9.30;;;17.40;99.90;;;;;;5036801;28;20237;-89
2021/08/22 05:03:27;;;;;;;15.67;10.30;;;17.50;99.90;;;;;;5013072;28;20240;-89
2021/08/22 05:05:53;;;;;;;17.73;10.13;;;17.50;99.90;;;;;;5028916;28;20663;-89
2021/08/22 05:08:19;;;;;;;17.40;10.03;;;17.50;99.90;;;;;;5028163;28;20214;-87
2021/08/22 05:10:45;;;;;;;14.97;9.10;;;17.50;99.90;;;;;;5028280;28;20225;-90
2021/08/22 05:13:11;;;;;;;14.07;7.47;;;17.60;99.90;;;;;;5004152;28;20222;-90
2021/08/22 05:15:37;;;;;;;16.73;9.80;;;17.60;99.90;;;;;;5029906;28;20213;-89
2021/08/22 05:18:03;;;;;;;14.23;9.03;;;17.60;99.90;;;;;;5029006;28;20737;-90
2021/08/22 05:20:28;;;;;;;14.87;8.67;;;17.60;99.90;;;;;;5012331;28;20297;-90
2021/08/22 05:22:54;;;;;;;17.33;8.80;;;17.60;99.90;;;;;;5012899;28;20276;-90
2021/08/22 05:25:20;;;;;;;15.27;9.80;;;17.60;99.90;;;;;;5013011;28;20268;-90
2021/08/22 05:27:45;;;;;;;15.97;9.37;;;17.70;99.90;;;;;;5036962;28;20218;-90
2021/08/22 05:30:13;;;;;;;17.43;9.83;;;17.70;99.90;;;;;;5020250;28;20225;-90
2021/08/22 05:32:39;;;;;;;16.13;10.07;;;17.70;99.90;;;;;;5030361;28;20652;-91
2021/08/22 05:35:05;;;;;;;16.97;9.57;;;17.70;99.90;;;;;;5028769;28;20309;-89
2021/08/22 05:37:31;;;;;;;20.00;10.53;;;17.80;99.90;;;;;;5027781;28;20222;-90
2021/08/22 05:39:57;;;;;;;17.57;9.80;;;17.80;99.90;;;;;;5028087;28;20705;-90
2021/08/22 05:42:23;;;;;;;20.00;9.70;;;17.70;99.90;;;;;;5028482;28;20191;-90
2021/08/22 05:44:48;;;;;;;17.80;10.53;;;17.80;99.90;;;;;;5012094;28;20301;-90
2021/08/22 05:47:23;;;;;;;16.13;9.13;;;17.80;99.90;;;;;;5027439;28;20246;-89
2021/08/22 05:49:49;;;;;;;20.80;10.53;;;17.80;99.90;;;;;;5027778;28;20283;-90
2021/08/22 05:52:15;;;;;;;16.60;9.37;;;17.80;99.90;;;;;;5026334;28;20211;-88
2021/08/22 05:54:41;;;;;;;14.40;9.03;;;17.80;99.90;;;;;;5011159;28;20252;-88
2021/08/22 05:57:06;;;;;;;17.57;9.50;;;17.80;99.90;;;;;;5026354;28;20248;-87
2021/08/22 05:59:33;;;;;;;17.27;9.37;;;17.80;99.90;;;;;;5011125;28;20198;-88
2021/08/22 06:02:03;;;;;;;18.63;9.83;;;17.80;99.90;;;;;;5033483;28;20279;-89
2021/08/22 06:04:30;;;;;;;19.37;11.73;;;17.80;99.90;;;;;;5051779;28;20701;-88
2021/08/22 06:06:55;;;;;;;15.77;10.77;;;17.90;99.90;;;;;;5026979;28;20729;-88
2021/08/22 06:09:23;;;;;;;16.97;9.57;;;17.90;99.90;;;;;;5025316;28;20238;-88
2021/08/22 06:11:50;;;;;;;17.23;10.23;;;17.80;99.90;;;;;;5026298;28;20282;-88
2021/08/22 06:14:15;;;;;;;16.93;10.00;;;17.90;99.90;;;;;;5033524;28;20221;-88
2021/08/22 06:16:41;;;;;;;14.93;9.00;;;17.90;99.90;;;;;;5026328;28;20210;-88
2021/08/22 06:19:07;;;;;;;17.80;8.53;;;17.90;99.90;;;;;;5010184;28;20214;-88
2021/08/22 06:21:33;;;;;;;16.20;8.37;;;17.90;99.90;;;;;;5009302;28;20583;-89
2021/08/22 06:23:59;;;;;;;18.97;9.77;;;17.90;99.90;;;;;;5035486;28;20181;-87
2021/08/22 06:26:26;;;;;;;15.43;9.23;;;17.90;99.90;;;;;;5010327;28;20577;-88
2021/08/22 06:28:52;;;;;;;17.50;10.47;;;18.00;99.90;;;;;;5009957;28;20203;-87
2021/08/22 06:31:18;;;;;;;18.43;10.03;;;18.00;99.90;;;;;;5034678;28;20217;-88
2021/08/22 06:33:45;;;;;;;22.40;11.90;;;18.00;99.90;;;;;;5026668;28;20210;-88
2021/08/22 06:36:12;;;;;;;21.57;11.87;;;18.00;99.90;;;;;;5028201;28;20187;-88
2021/08/22 06:38:38;;;;;;;21.53;12.17;;;18.10;99.90;;;;;;5054398;28;20178;-88
2021/08/22 06:41:04;;;;;;;18.40;11.33;;;18.10;99.90;;;;;;5035742;28;20215;-90
2021/08/22 06:43:30;;;;;;;15.17;9.47;;;18.20;99.90;;;;;;5001540;28;20218;-87
2021/08/22 06:45:56;;;;;;;22.27;11.27;;;18.10;99.90;;;;;;5014879;28;20230;-86
2021/08/22 06:48:23;;;;;;;18.73;10.47;;;18.20;99.90;;;;;;5035808;28;20281;-87
2021/08/22 06:50:49;;;;;;;20.23;11.87;;;18.30;99.90;;;;;;5033519;28;20304;-86
2021/08/22 06:53:15;;;;;;;23.23;11.20;;;18.30;99.90;;;;;;5025404;28;20221;-85
2021/08/22 06:55:42;;;;;;;22.70;12.50;;;18.30;99.90;;;;;;5027485;28;21248;-85
2021/08/22 06:58:08;;;;;;;22.73;13.93;;;18.40;99.90;;;;;;5016819;28;20222;-85
2021/08/22 07:00:34;;;;;;;23.63;12.10;;;18.40;99.90;;;;;;5025598;28;20217;-84
2021/08/22 07:03:00;;;;;;;22.67;12.23;;;18.50;99.90;;;;;;5017247;28;20252;-85
2021/08/22 07:05:26;;;;;;;24.53;13.80;;;18.60;99.90;;;;;;5025439;28;20215;-87
2021/08/22 07:07:52;;;;;;;21.53;11.93;;;18.60;99.90;;;;;;5033433;28;20209;-84
2021/08/22 07:10:18;;;;;;;22.83;10.73;;;18.60;99.90;;;;;;5033949;28;20233;-85
2021/08/22 07:12:44;;;;;;;23.00;13.90;;;18.60;99.90;;;;;;5027645;28;20558;-85
2021/08/22 07:15:12;;;;;;;30.33;16.17;;;18.60;99.90;;;;;;4977880;28;20224;-87
2021/08/22 07:17:38;;;;;;;24.27;14.63;;;18.70;99.90;;;;;;5031832;28;20187;-88
2021/08/22 07:20:07;;;;;;;25.47;14.67;;;18.60;99.90;;;;;;5036111;28;20297;-85
2021/08/22 07:22:33;;;;;;;22.40;14.03;;;18.50;99.90;;;;;;5038832;28;20197;-87
2021/08/22 07:25:03;;;;;;;25.30;14.13;;;18.50;99.90;;;;;;5029655;28;20210;-86
2021/08/22 07:27:29;;;;;;;22.07;14.20;;;18.50;99.90;;;;;;5037770;28;20226;-87
2021/08/22 07:29:55;;;;;;;27.17;14.77;;;18.70;99.90;;;;;;5021332;28;20648;-87
2021/08/22 07:32:20;;;;;;;22.47;14.17;;;18.70;99.90;;;;;;5030143;28;20206;-86
2021/08/22 07:34:46;;;;;;;21.03;13.80;;;18.70;99.90;;;;;;5028683;28;20218;-89
2021/08/22 07:37:12;;;;;;;27.53;13.93;;;18.80;99.90;;;;;;5030782;28;20245;-86
2021/08/22 07:39:37;;;;;;;21.13;13.20;;;18.90;99.90;;;;;;5038996;28;20187;-86
2021/08/22 07:42:04;;;;;;;23.97;15.10;;;18.90;99.90;;;;;;5030546;28;20247;-85
2021/08/22 07:44:29;;;;;;;23.63;14.40;;;18.90;99.90;;;;;;5028339;28;20209;-87
2021/08/22 07:46:55;;;;;;;23.87;14.57;;;18.90;99.90;;;;;;5022484;28;20707;-88
2021/08/22 07:49:21;;;;;;;26.67;14.63;;;19.00;99.90;;;;;;5018932;28;20272;-89
2021/08/22 07:51:47;;;;;;;22.83;13.63;;;19.20;99.90;;;;;;5028077;28;20263;-88
2021/08/22 07:54:14;;;;;;;21.30;14.07;;;19.30;99.90;;;;;;5038631;28;20208;-87
2021/08/22 07:56:41;;;;;;;22.97;13.33;;;19.40;99.90;;;;;;5035422;28;20650;-85
2021/08/22 07:59:10;;;;;;;26.37;12.83;;;19.50;99.90;;;;;;5034549;28;20214;-87
2021/08/22 08:01:46;;;;;;;19.30;11.67;;;19.50;99.90;;;;;;5033152;28;20329;-89
2021/08/22 08:04:18;;;;;;;23.20;12.73;;;19.50;99.90;;;;;;5026629;28;20229;-85
2021/08/22 08:06:47;;;;;;;18.43;13.10;;;19.50;99.90;;;;;;5034130;28;20217;-87
2021/08/22 08:09:12;;;;;;;16.43;11.03;;;19.50;99.90;;;;;;5027810;28;20664;-85
2021/08/22 08:11:44;;;;;;;15.50;9.83;;;19.50;99.90;;;;;;5045502;28;20780;-86
2021/08/22 08:14:10;;;;;;;19.17;11.43;;;19.50;99.90;;;;;;4973973;28;20224;-85
2021/08/22 08:16:39;;;;;;;13.73;9.63;;;19.50;99.90;;;;;;5036099;28;20288;-85
2021/08/22 08:19:04;;;;;;;15.37;10.80;;;19.50;99.90;;;;;;5035079;28;20216;-86
2021/08/22 08:21:30;;;;;;;15.17;10.00;;;19.50;99.90;;;;;;5027997;28;20194;-85
2021/08/22 08:23:56;;;;;;;12.93;8.00;;;19.50;99.90;;;;;;5029978;28;20202;-86
2021/08/22 08:26:22;;;;;;;14.07;9.13;;;19.50;99.90;;;;;;5037156;28;20309;-85
2021/08/22 08:28:48;;;;;;;15.60;8.53;;;19.40;99.90;;;;;;5017462;28;20310;-86
2021/08/22 08:31:13;;;;;;;14.23;8.53;;;19.40;99.90;;;;;;5010876;28;20892;-88
2021/08/22 08:33:39;;;;;;;11.10;7.47;;;19.20;99.90;;;;;;5010682;28;20194;-86
2021/08/22 08:36:05;;;;;;;13.40;8.03;;;19.00;99.90;;;;;;5035795;28;20182;-87
2021/08/22 08:38:31;;;;;;;10.53;7.50;;;19.00;99.90;;;;;;5018780;28;20704;-86
2021/08/22 08:41:00;;;;;;;13.80;7.53;;;19.00;99.90;;;;;;5027435;28;20218;-86
2021/08/22 08:43:25;;;;;;;13.27;8.67;;;18.90;99.90;;;;;;5028911;28;20221;-86
2021/08/22 08:46:10;;;;;;;11.43;7.63;;;18.80;99.90;;;;;;5011877;28;20226;-86
2021/08/22 08:48:59;;;;;;;9.30;7.40;;;18.60;99.90;;;;;;5053737;28;20189;-86
2021/08/22 08:51:43;;;;;;;8.73;6.60;;;18.60;99.90;;;;;;5036491;28;20361;-87
2021/08/22 08:54:30;;;;;;;12.43;8.17;;;18.60;99.90;;;;;;5037685;28;20233;-87
2021/08/22 08:57:00;;;;;;;11.90;7.77;;;18.60;99.90;;;;;;5039071;28;20307;-88
2021/08/22 08:59:28;;;;;;;16.57;9.13;;;18.70;99.90;;;;;;5037544;28;20215;-86
2021/08/22 09:01:56;;;;;;;12.47;9.63;;;18.70;99.90;;;;;;5027887;28;20735;-86
2021/08/22 09:04:27;;;;;;;11.23;9.37;;;18.80;99.90;;;;;;5026335;28;20214;-86
2021/08/22 09:07:18;;;;;;;16.57;10.13;;;18.70;99.90;;;;;;5035144;28;20237;-86
2021/08/22 09:10:01;;;;;;;13.70;9.13;;;18.80;99.90;;;;;;5039712;28;20224;-86
2021/08/22 09:13:04;;;;;;;12.20;8.90;;;18.80;99.90;;;;;;5039702;28;20205;-89
2021/08/22 09:16:02;;;;;;;10.13;7.67;;;18.80;99.90;;;;;;5033672;28;20217;-86
2021/08/22 09:18:36;;;;;;;9.43;7.60;;;18.80;99.90;;;;;;5036922;28;20183;-88
2021/08/22 09:21:37;;;;;;;14.47;8.87;;;19.00;99.90;;;;;;5035748;28;20580;-91
2021/08/22 09:24:34;;;;;;;12.97;8.57;;;19.00;99.90;;;;;;5038864;28;20217;-89
2021/08/22 09:27:26;;;;;;;11.13;8.07;;;19.10;99.90;;;;;;5043574;28;20226;-89
2021/08/22 09:30:13;;;;;;;14.00;8.23;;;19.20;99.90;;;;;;5004045;28;20206;-88
2021/08/22 09:33:10;;;;;;;11.83;8.70;;;19.40;99.90;;;;;;5038723;28;20217;-87
2021/08/22 09:35:44;;;;;;;11.90;7.77;;;19.30;99.90;;;;;;5038303;28;20210;-88
2021/08/22 09:38:19;;;;;;;12.37;9.00;;;19.30;99.90;;;;;;5033927;28;20214;-88
2021/08/22 09:41:22;;;;;;;9.20;6.67;;;19.50;99.90;;;;;;5033106;28;20253;-88
2021/08/22 09:44:13;;;;;;;9.93;7.07;;;19.30;99.90;;;;;;5044493;28;20217;-89
2021/08/22 09:47:07;;;;;;;9.67;7.10;;;19.20;99.90;;;;;;5035555;28;20222;-89
2021/08/22 09:50:07;;;;;;;11.80;6.73;;;19.10;99.90;;;;;;5036595;28;20720;-88
2021/08/22 09:52:39;;;;;;;9.93;7.13;;;18.90;99.90;;;;;;5036024;28;20222;-89
2021/08/22 09:55:41;;;;;;;10.43;6.37;;;18.90;99.90;;;;;;5036550;28;20698;-88
2021/08/22 09:58:23;;;;;;;9.47;6.87;;;18.80;99.90;;;;;;5043821;28;21140;-90
2021/08/22 10:01:36;;;;;;;7.73;5.53;;;18.70;99.90;;;;;;5033743;28;20183;-90
2021/08/22 10:04:23;;;;;;;10.07;6.47;;;18.60;99.90;;;;;;5032970;28;20279;-89
2021/08/22 10:07:06;;;;;;;11.17;6.53;;;18.80;99.90;;;;;;5033460;28;20217;-90
2021/08/22 10:09:42;;;;;;;8.23;5.27;;;19.10;99.90;;;;;;5032867;28;20789;-88
2021/08/22 10:12:08;;;;;;;10.30;5.77;;;19.10;99.90;;;;;;5035328;28;20178;-89
2021/08/22 10:14:39;;;;;;;8.60;5.80;;;19.20;99.90;;;;;;5027154;28;20236;-88
2021/08/22 10:17:06;;;;;;;9.03;5.93;;;19.30;99.90;;;;;;5035238;28;20263;-89
2021/08/22 10:19:32;;;;;;;7.73;4.87;;;19.30;99.90;;;;;;5026184;28;20221;-90
2021/08/22 10:22:21;;;;;;;6.53;4.77;;;19.20;99.90;;;;;;5011243;28;20210;-89
2021/08/22 10:24:54;;;;;;;9.00;6.33;;;19.00;99.90;;;;;;5034784;28;20241;-88
2021/08/22 10:27:47;;;;;;;11.30;6.93;;;18.80;99.90;;;;;;5011912;28;20242;-90
2021/08/22 10:30:18;;;;;;;8.50;6.13;;;18.70;99.90;;;;;;5033706;28;20270;-88
2021/08/22 10:32:59;;;;;;;7.33;5.73;;;18.70;99.90;;;;;;5027605;28;20271;-89
2021/08/22 10:35:26;;;;;;;7.07;5.37;;;18.70;99.90;;;;;;5036285;28;20224;-91
2021/08/22 10:37:52;;;;;;;7.97;5.63;;;18.60;99.90;;;;;;5018878;28;20301;-87
2021/08/22 10:40:28;;;;;;;7.17;5.90;;;18.40;99.90;;;;;;5009648;28;20464;-87
2021/08/22 10:42:57;;;;;;;9.63;6.30;;;18.40;99.90;;;;;;5034675;28;20264;-88
2021/08/22 10:45:42;;;;;;;8.97;5.87;;;18.40;99.90;;;;;;5035582;28;20639;-87
2021/08/22 10:48:33;;;;;;;6.97;5.80;;;18.20;99.90;;;;;;5026170;28;20316;-87
2021/08/22 10:50:59;;;;;;;7.17;5.60;;;18.20;99.90;;;;;;5018281;28;20684;-87
2021/08/22 10:53:26;;;;;;;6.97;6.20;;;18.10;99.90;;;;;;5035818;28;20234;-86
2021/08/22 10:55:51;;;;;;;10.07;6.33;;;18.10;99.90;;;;;;5040084;28;20206;-88
2021/08/22 10:58:17;;;;;;;10.87;7.43;;;18.10;99.90;;;;;;5030131;28;20236;-85
2021/08/22 11:00:44;;;;;;;8.53;6.13;;;18.20;99.90;;;;;;5029427;28;20236;-86
2021/08/22 11:03:20;;;;;;;11.30;6.80;;;18.20;99.90;;;;;;5040473;28;20186;-84
2021/08/22 11:05:47;;;;;;;8.87;6.07;;;18.20;99.90;;;;;;5038481;28;20232;-86
2021/08/22 11:08:32;;;;;;;9.03;7.07;;;18.20;99.90;;;;;;5029107;28;20218;-86
2021/08/22 11:11:05;;;;;;;10.03;6.17;;;18.20;99.90;;;;;;5046051;28;20222;-86
2021/08/22 11:13:33;;;;;;;8.27;7.03;;;18.10;99.90;;;;;;5039142;28;20275;-86
2021/08/22 11:16:09;;;;;;;10.73;7.07;;;18.10;99.90;;;;;;5036478;28;20218;-87
2021/08/22 11:18:36;;;;;;;9.67;6.60;;;18.10;99.90;;;;;;5012997;28;20189;-85
2021/08/22 11:21:03;;;;;;;12.03;7.00;;;18.10;99.90;;;;;;5013321;28;20640;-88
2021/08/22 11:23:29;;;;;;;11.10;7.20;;;18.10;99.90;;;;;;5038359;28;20237;-88
2021/08/22 11:26:03;;;;;;;11.53;8.10;;;18.10;99.90;;;;;;5029916;28;20717;-86
2021/08/22 11:28:29;;;;;;;12.00;7.70;;;18.10;99.90;;;;;;5045611;28;20749;-87
2021/08/22 11:30:54;;;;;;;10.07;6.90;;;18.10;99.90;;;;;;5039936;28;20225;-88
2021/08/22 11:33:20;;;;;;;14.30;7.53;;;18.20;99.90;;;;;;5029160;28;20197;-86
2021/08/22 11:35:47;;;;;;;10.17;6.87;;;18.20;99.90;;;;;;5012358;28;20221;-88
2021/08/22 11:38:16;;;;;;;10.80;6.93;;;18.30;99.90;;;;;;5012932;28;20205;-88
2021/08/22 11:40:43;;;;;;;9.30;6.97;;;18.40;99.90;;;;;;5020823;28;20210;-88
2021/08/22 11:43:10;;;;;;;8.63;6.27;;;18.30;99.90;;;;;;5045523;28;20222;-89
2021/08/22 11:45:46;;;;;;;9.00;6.40;;;18.40;99.90;;;;;;5029720;28;20222;-89
2021/08/22 11:48:20;;;;;;;10.60;7.30;;;18.50;99.90;;;;;;5019463;28;20206;-88
2021/08/22 11:50:47;;;;;;;10.03;6.43;;;18.50;99.90;;;;;;5036584;28;20213;-89
2021/08/22 11:53:15;;;;;;;10.23;6.40;;;18.50;99.90;;;;;;5035092;28;20601;-89
2021/08/22 11:55:42;;;;;;;9.63;6.37;;;18.30;99.90;;;;;;5018285;28;20759;-88
2021/08/22 11:58:19;;;;;;;10.07;6.40;;;18.30;99.90;;;;;;5036970;28;20269;-88
2021/08/22 12:00:55;;;;;;;7.90;5.37;;;18.30;99.90;;;;;;5038608;28;20192;-89
2021/08/22 12:03:25;;;;;;;9.03;6.07;;;18.30;99.90;;;;;;5037671;28;20182;-87
2021/08/22 12:06:05;;;;;;;7.50;5.40;;;18.40;99.90;;;;;;5036132;28;20237;-88
2021/08/22 12:08:32;;;;;;;7.10;5.00;;;18.60;99.90;;;;;;5019957;28;20216;-88
2021/08/22 12:11:13;;;;;;;5.97;4.40;;;18.70;99.90;;;;;;5033722;28;20253;-88
2021/08/22 12:13:41;;;;;;;8.20;4.70;;;18.60;99.90;;;;;;5019033;28;20206;-88
2021/08/22 12:16:26;;;;;;;5.30;4.60;;;18.50;99.90;;;;;;5037865;28;20245;-87
2021/08/22 12:18:52;;;;;;;6.83;4.93;;;18.50;99.90;;;;;;5036525;28;21180;-88
2021/08/22 12:21:19;;;;;;;6.60;4.13;;;18.60;99.90;;;;;;5012831;28;20182;-88
2021/08/22 12:23:47;;;;;;;4.53;4.03;;;18.60;99.90;;;;;;5037493;28;20213;-87
2021/08/22 12:26:47;;;;;;;6.53;3.73;;;18.70;99.90;;;;;;5034088;28;20226;-87
2021/08/22 12:29:14;;;;;;;4.20;3.77;;;18.60;99.90;;;;;;5035225;28;20221;-87
2021/08/22 12:31:42;;;;;;;4.93;3.07;;;18.60;99.90;;;;;;5028478;28;21167;-85
2021/08/22 12:34:10;;;;;;;3.93;3.43;;;18.50;99.90;;;;;;5036007;28;20587;-87
2021/08/22 12:36:41;;;;;;;4.30;2.60;;;18.50;99.90;;;;;;5033319;28;20190;-88
2021/08/22 12:39:09;;;;;;;3.23;2.40;;;18.40;99.90;;;;;;5036383;28;20175;-90
2021/08/22 12:41:45;;;;;;;2.83;2.27;;;18.40;99.90;;;;;;5036995;28;20214;-88
2021/08/22 12:44:15;;;;;;;2.17;1.97;;;18.30;99.90;;;;;;5037635;28;20583;-88
2021/08/22 12:46:42;;;;;;;3.90;2.03;;;18.30;99.90;;;;;;5034086;28;20249;-88